Glassville, Canada
Current Conditions -  °F | °C
As of 12:53 AM on Sunday 21 Dec 2014 (Local Time) from KHUL Reporting Station
Overcast Overcast  
Wind Chill: -8°   Ceiling: 1600
Heat Index: -8°   Visibility: 10mi
Dew Point: -9°   Wind: 3mph
Humidity: 88%   Direction: 30°NNE
Pressure: 30.34"   Gusts: NA
Location:  46.48°N, 67.42°W
Report Text: KHUL 210453Z AUTO 03003KT 10SM OVC016 M08/M09 A3034 RMK AO2 SLP286 T10781094 410611161
Loading
Personal Weather Stations






























Interactive Weather Map New forecast layout! Learn more

10-Day Weather Forecast

Advertisements
Track Severe Weather on mobile